createdAt,value
2018-11-14T00:00:30.632Z,21.30
2018-11-14T00:02:59.554Z,21.43
2018-11-14T00:05:27.433Z,20.87
2018-11-14T00:07:55.394Z,22.47
2018-11-14T00:10:23.331Z,22.03
2018-11-14T00:12:51.208Z,24.93
2018-11-14T00:15:20.558Z,21.47
2018-11-14T00:17:49.466Z,21.83
2018-11-14T00:20:17.375Z,21.93
2018-11-14T00:22:46.398Z,29.23
2018-11-14T00:25:14.343Z,30.57
2018-11-14T00:27:42.233Z,27.07
2018-11-14T00:30:16.772Z,25.40
2018-11-14T00:32:44.659Z,24.23
2018-11-14T00:35:12.959Z,24.87
2018-11-14T00:37:41.336Z,27.83
2018-11-14T00:40:11.175Z,25.77
2018-11-14T00:42:39.551Z,33.03
2018-11-14T00:45:09.824Z,37.63
2018-11-14T00:47:37.882Z,30.07
2018-11-14T00:50:06.642Z,35.73
2018-11-14T00:52:34.588Z,37.27
2018-11-14T00:55:02.524Z,29.73
2018-11-14T00:57:30.411Z,31.57
2018-11-14T00:59:58.439Z,36.07
2018-11-14T01:02:26.258Z,34.53
2018-11-14T01:04:54.111Z,36.53
2018-11-14T01:07:21.991Z,29.30
2018-11-14T01:09:49.983Z,37.37
2018-11-14T01:12:17.889Z,35.13
2018-11-14T01:14:45.770Z,36.23
2018-11-14T01:17:13.693Z,32.70
2018-11-14T01:19:41.649Z,30.30
2018-11-14T01:22:09.581Z,30.10
2018-11-14T01:24:37.427Z,29.13
2018-11-14T01:27:05.400Z,26.63
2018-11-14T01:29:33.320Z,28.80
2018-11-14T01:32:01.159Z,35.10
2018-11-14T01:34:29.011Z,26.97
2018-11-14T01:36:56.903Z,30.97
2018-11-14T01:39:24.760Z,27.17
2018-11-14T01:41:52.653Z,39.17
2018-11-14T01:44:20.620Z,46.37
2018-11-14T01:46:48.464Z,32.40
2018-11-14T01:49:16.318Z,34.20
2018-11-14T01:51:44.243Z,27.03
2018-11-14T01:54:12.101Z,31.93
2018-11-14T01:56:39.970Z,26.40
2018-11-14T01:59:07.843Z,31.80
2018-11-14T02:01:35.718Z,60.23
2018-11-14T02:04:03.618Z,52.77
2018-11-14T02:06:31.562Z,39.33
2018-11-14T02:08:59.454Z,38.47
2018-11-14T02:11:27.364Z,27.33
2018-11-14T02:13:55.268Z,30.90
2018-11-14T02:16:23.222Z,23.83
2018-11-14T02:18:51.439Z,28.07
2018-11-14T02:21:19.485Z,24.70
2018-11-14T02:23:47.393Z,30.47
2018-11-14T02:26:15.312Z,33.03
2018-11-14T02:28:43.295Z,26.97
2018-11-14T02:31:11.199Z,42.50
2018-11-14T02:33:39.092Z,25.47
2018-11-14T02:36:07.044Z,51.27
2018-11-14T02:38:34.938Z,53.57
2018-11-14T02:41:02.838Z,25.50
2018-11-14T02:43:30.774Z,23.10
2018-11-14T02:45:58.671Z,35.20
2018-11-14T02:48:26.635Z,20.47
2018-11-14T02:51:05.833Z,24.07
2018-11-14T02:53:33.719Z,43.77
2018-11-14T02:56:10.894Z,21.03
2018-11-14T02:58:38.868Z,94.90
2018-11-14T03:01:07.190Z,39.40
2018-11-14T03:03:35.135Z,32.93
2018-11-14T03:06:03.079Z,23.10
2018-11-14T03:08:30.968Z,23.33
2018-11-14T03:10:58.893Z,30.53
2018-11-14T03:13:26.800Z,19.10
2018-11-14T03:15:54.707Z,19.87
2018-11-14T03:18:22.660Z,52.07
2018-11-14T03:20:50.724Z,59.00
2018-11-14T03:23:18.865Z,18.37
2018-11-14T03:25:46.931Z,24.93
2018-11-14T03:28:14.939Z,17.47
2018-11-14T03:30:42.918Z,17.53
2018-11-14T03:33:10.954Z,26.67
2018-11-14T03:35:44.599Z,25.03
2018-11-14T03:38:12.635Z,18.50
2018-11-14T03:40:40.635Z,24.10
2018-11-14T03:43:08.606Z,56.43
2018-11-14T03:45:36.632Z,24.70
2018-11-14T03:48:04.771Z,60.10
2018-11-14T03:50:32.770Z,20.33
2018-11-14T03:53:00.843Z,16.73
2018-11-14T03:55:28.826Z,42.27
2018-11-14T03:57:56.802Z,28.63
2018-11-14T04:00:24.814Z,15.83
2018-11-14T04:02:52.774Z,22.07
2018-11-14T04:05:20.752Z,18.33
2018-11-14T04:07:48.796Z,19.07
2018-11-14T04:10:16.762Z,23.07
2018-11-14T04:12:44.744Z,85.60
2018-11-14T04:15:13.768Z,20.90
2018-11-14T04:18:44.848Z,46.87
2018-11-14T04:21:12.853Z,26.93
2018-11-14T04:23:48.231Z,26.90
2018-11-14T04:26:16.585Z,42.20
2018-11-14T04:28:44.942Z,48.97
2018-11-14T04:31:12.872Z,30.93
2018-11-14T04:33:40.814Z,48.10
2018-11-14T04:36:08.722Z,26.93
2018-11-14T04:38:36.622Z,28.27
2018-11-14T04:41:04.628Z,27.63
2018-11-14T04:43:32.529Z,50.63
2018-11-14T04:46:00.430Z,31.47
2018-11-14T04:48:28.967Z,42.97
2018-11-14T04:50:56.934Z,32.50
2018-11-14T04:53:24.826Z,29.83
2018-11-14T04:55:52.786Z,34.17
2018-11-14T04:58:20.674Z,31.93
2018-11-14T05:03:40.887Z,31.33
2018-11-14T05:06:08.761Z,28.63
2018-11-14T05:08:36.637Z,28.17
2018-11-14T05:11:04.727Z,26.80
2018-11-14T05:13:32.616Z,27.83
2018-11-14T05:16:00.527Z,28.63
2018-11-14T05:18:28.446Z,27.57
2018-11-14T05:20:56.339Z,32.53
2018-11-14T05:23:24.234Z,24.53
2018-11-14T05:25:52.267Z,26.77
2018-11-14T05:28:20.202Z,25.63
2018-11-14T05:30:48.096Z,26.20
2018-11-14T05:33:16.007Z,47.57
2018-11-14T05:35:43.882Z,29.00
2018-11-14T05:38:11.854Z,27.80
2018-11-14T05:40:39.767Z,27.90
2018-11-14T05:43:07.644Z,27.53
2018-11-14T05:45:35.633Z,41.07
2018-11-14T05:48:03.555Z,25.47
2018-11-14T05:50:31.466Z,25.07
2018-11-14T05:52:59.399Z,20.40
2018-11-14T05:55:27.337Z,20.37
2018-11-14T05:57:55.238Z,25.10
2018-11-14T06:00:29.419Z,22.00
2018-11-14T06:02:57.911Z,22.07
2018-11-14T06:05:26.027Z,34.77
2018-11-14T06:07:54.438Z,19.20
2018-11-14T06:10:22.387Z,17.67
2018-11-14T06:12:50.302Z,18.50
2018-11-14T06:15:19.494Z,20.90
2018-11-14T06:17:47.971Z,17.13
2018-11-14T06:20:18.238Z,19.83
2018-11-14T06:22:47.082Z,20.33
2018-11-14T06:25:22.715Z,21.80
2018-11-14T06:27:52.354Z,18.67
2018-11-14T06:30:26.238Z,21.23
2018-11-14T06:32:56.438Z,22.50
2018-11-14T06:35:24.409Z,22.53
2018-11-14T06:37:53.096Z,19.13
2018-11-14T06:40:23.112Z,20.43
2018-11-14T06:42:51.038Z,20.70
2018-11-14T06:45:23.486Z,22.17
2018-11-14T06:47:53.236Z,23.87
2018-11-14T06:50:21.436Z,18.20
2018-11-14T06:52:50.835Z,18.30
2018-11-14T06:55:19.426Z,19.07
2018-11-14T06:57:47.711Z,17.87
2018-11-14T07:00:48.614Z,21.53
2018-11-14T07:03:16.804Z,21.43
2018-11-14T07:05:44.784Z,18.00
2018-11-14T07:08:12.627Z,17.03
2018-11-14T07:10:40.515Z,22.00
2018-11-14T07:13:10.510Z,22.00
2018-11-14T07:15:39.241Z,26.03
2018-11-14T07:18:08.278Z,20.07
2018-11-14T07:20:37.629Z,20.03
2018-11-14T07:23:05.826Z,24.97
2018-11-14T07:32:18.169Z,25.37
2018-11-14T07:34:45.996Z,24.20
2018-11-14T07:37:13.886Z,26.33
2018-11-14T07:39:41.786Z,24.73
2018-11-14T07:42:09.684Z,24.47
2018-11-14T07:44:37.596Z,27.23
2018-11-14T07:47:05.574Z,31.23
2018-11-14T07:49:33.458Z,32.87
2018-11-14T07:52:01.358Z,32.87
2018-11-14T07:54:29.377Z,30.73
2018-11-14T07:56:57.307Z,29.07
2018-11-14T07:59:25.203Z,30.43
2018-11-14T08:01:53.144Z,31.73
2018-11-14T08:04:21.041Z,26.70
2018-11-14T08:06:49.030Z,25.43
2018-11-14T08:09:17.002Z,25.93
2018-11-14T08:11:44.924Z,27.37
2018-11-14T08:14:12.816Z,26.43
2018-11-14T08:16:40.744Z,27.77
2018-11-14T08:19:08.646Z,23.60
2018-11-14T08:21:36.566Z,26.13
2018-11-14T08:24:04.516Z,26.00
2018-11-14T08:26:32.397Z,26.17
2018-11-14T08:29:00.276Z,27.63
2018-11-14T08:31:28.195Z,29.10
2018-11-14T08:33:56.272Z,32.93
2018-11-14T08:36:24.170Z,33.20
2018-11-14T08:38:52.243Z,35.13
2018-11-14T08:41:20.150Z,38.60
2018-11-14T08:43:48.030Z,36.67
2018-11-14T08:46:15.949Z,36.33
2018-11-14T08:48:43.832Z,37.07
2018-11-14T08:51:11.735Z,43.43
2018-11-14T08:53:39.711Z,39.80
2018-11-14T08:56:07.642Z,42.73
2018-11-14T08:58:35.527Z,41.47
2018-11-14T09:01:03.592Z,33.33
2018-11-14T09:03:31.470Z,33.33
2018-11-14T09:05:59.363Z,32.07
2018-11-14T09:08:27.274Z,29.33
2018-11-14T09:10:55.378Z,25.07
2018-11-14T09:13:23.244Z,26.40
2018-11-14T09:15:51.185Z,28.17
2018-11-14T09:18:19.184Z,27.73
2018-11-14T09:20:46.998Z,28.63
2018-11-14T09:23:15.003Z,26.97
2018-11-14T09:25:42.902Z,27.07
2018-11-14T09:28:10.831Z,26.77
2018-11-14T09:30:38.765Z,27.53
2018-11-14T09:33:06.673Z,27.00
2018-11-14T09:35:35.012Z,22.73
2018-11-14T09:38:03.001Z,23.73
2018-11-14T09:40:30.944Z,24.27
2018-11-14T09:42:58.950Z,23.53
2018-11-14T09:45:29.069Z,26.17
2018-11-14T09:47:57.052Z,22.17
2018-11-14T09:50:28.125Z,23.10
2018-11-14T09:52:58.430Z,22.63
2018-11-14T09:55:26.401Z,21.23
2018-11-14T09:57:54.334Z,22.30
2018-11-14T10:00:24.403Z,22.10
2018-11-14T10:02:54.388Z,23.60
2018-11-14T10:05:23.242Z,19.83
2018-11-14T10:07:51.312Z,23.67
2018-11-14T10:10:20.606Z,22.43
2018-11-14T10:12:48.549Z,24.93
2018-11-14T10:15:17.741Z,22.67
2018-11-14T10:17:46.164Z,24.63
2018-11-14T10:20:15.376Z,19.97
2018-11-14T10:22:43.908Z,22.47
2018-11-14T10:25:12.735Z,20.17
2018-11-14T10:27:41.610Z,21.83
2018-11-14T10:30:13.046Z,18.03
2018-11-14T10:32:41.630Z,19.50
2018-11-14T10:35:10.146Z,20.00
2018-11-14T10:37:44.347Z,19.73
2018-11-14T10:40:14.996Z,18.23
2018-11-14T10:42:57.984Z,22.03
2018-11-14T10:45:26.793Z,17.90
2018-11-14T10:47:54.751Z,18.60
2018-11-14T10:50:24.078Z,19.23
2018-11-14T10:52:51.974Z,19.73
2018-11-14T10:55:20.376Z,19.20
2018-11-14T10:57:48.323Z,18.43
2018-11-14T11:00:29.544Z,17.67
2018-11-14T11:03:04.132Z,22.13
2018-11-14T11:05:37.519Z,20.90
2018-11-14T11:08:11.182Z,19.93
2018-11-14T11:10:44.462Z,20.30
2018-11-14T11:13:18.032Z,20.30
2018-11-14T11:15:51.606Z,19.67
2018-11-14T11:18:23.890Z,19.87
2018-11-14T11:20:51.931Z,19.53
2018-11-14T11:23:19.931Z,23.33
2018-11-14T11:25:47.843Z,21.77
2018-11-14T11:28:15.754Z,23.13
2018-11-14T11:30:43.724Z,18.63
2018-11-14T11:33:11.680Z,21.13
2018-11-14T11:35:39.603Z,21.00
2018-11-14T11:38:07.610Z,21.97
2018-11-14T11:40:35.533Z,20.57
2018-11-14T11:43:04.458Z,20.63
2018-11-14T11:45:33.882Z,19.97
2018-11-14T11:48:02.397Z,20.97
2018-11-14T11:50:30.312Z,19.10
2018-11-14T11:52:59.358Z,21.57
2018-11-14T11:55:31.925Z,18.20
2018-11-14T11:58:08.243Z,22.00
2018-11-14T12:00:39.305Z,20.93
2018-11-14T12:03:07.146Z,18.63
2018-11-14T12:05:35.252Z,21.10
2018-11-14T12:08:04.099Z,20.07
2018-11-14T12:10:33.810Z,18.60
2018-11-14T12:13:01.707Z,19.43
2018-11-14T12:15:29.651Z,16.93
2018-11-14T12:17:57.546Z,17.63
2018-11-14T12:20:25.503Z,17.60
2018-11-14T12:22:53.454Z,17.43
2018-11-14T12:25:21.806Z,16.43
2018-11-14T12:27:49.687Z,17.90
2018-11-14T12:30:18.056Z,15.83
2018-11-14T12:32:45.883Z,22.37
2018-11-14T12:35:15.165Z,17.20
2018-11-14T12:37:43.257Z,16.73
2018-11-14T12:40:12.491Z,15.67
2018-11-14T12:42:40.410Z,15.80
2018-11-14T12:45:10.680Z,15.80
2018-11-14T12:47:38.591Z,18.07
2018-11-14T12:50:07.122Z,16.57
2018-11-14T12:52:35.171Z,15.40
2018-11-14T12:55:03.176Z,14.57
2018-11-14T12:57:31.791Z,18.10
2018-11-14T12:59:59.752Z,15.87
2018-11-14T13:02:27.628Z,15.80
2018-11-14T13:04:55.500Z,18.33
2018-11-14T13:07:23.461Z,15.27
2018-11-14T13:09:51.362Z,16.27
2018-11-14T13:12:19.401Z,16.13
2018-11-14T13:14:47.348Z,16.90
2018-11-14T13:17:15.650Z,18.20
2018-11-14T13:19:43.559Z,16.13
2018-11-14T13:22:11.510Z,15.07
2018-11-14T13:24:39.497Z,16.17
2018-11-14T13:27:07.394Z,15.00
2018-11-14T13:29:35.321Z,15.93
2018-11-14T13:32:03.227Z,15.47
2018-11-14T13:34:31.182Z,16.13
2018-11-14T13:36:59.728Z,17.87
2018-11-14T13:39:27.707Z,15.77
2018-11-14T13:41:55.717Z,18.60
2018-11-14T13:44:23.730Z,15.80
2018-11-14T13:46:51.632Z,18.13
2018-11-14T13:49:19.792Z,22.10
2018-11-14T13:51:47.627Z,18.30
2018-11-14T13:54:16.519Z,18.33
2018-11-14T13:56:44.531Z,27.50
2018-11-14T13:59:12.537Z,22.23
2018-11-14T14:01:40.432Z,17.67
2018-11-14T14:04:08.360Z,19.40
2018-11-14T14:06:36.367Z,21.00
2018-11-14T14:09:07.416Z,18.33
2018-11-14T14:11:35.316Z,19.90
2018-11-14T14:14:10.627Z,18.73
2018-11-14T14:16:39.179Z,21.93
2018-11-14T14:19:07.551Z,19.77
2018-11-14T14:21:36.326Z,21.33
2018-11-14T14:24:04.323Z,19.80
2018-11-14T14:26:32.343Z,22.53
2018-11-14T14:29:00.485Z,21.07
2018-11-14T14:31:29.104Z,20.43
2018-11-14T14:33:57.036Z,20.33
2018-11-14T14:36:25.865Z,21.10
2018-11-14T14:38:53.877Z,21.87
2018-11-14T14:41:21.833Z,23.60
2018-11-14T14:43:49.814Z,22.30
2018-11-14T14:46:17.713Z,25.70
2018-11-14T14:48:45.627Z,25.93
2018-11-14T14:51:13.567Z,27.47
2018-11-14T14:53:41.507Z,24.23
2018-11-14T14:56:09.506Z,24.17
2018-11-14T14:58:37.405Z,27.47
2018-11-14T15:01:05.761Z,27.03
2018-11-14T15:03:35.941Z,26.20
2018-11-14T15:06:04.028Z,25.27
2018-11-14T15:08:32.094Z,30.90
2018-11-14T15:11:00.025Z,29.17
2018-11-14T15:13:27.991Z,30.47
2018-11-14T15:15:55.936Z,29.17
2018-11-14T15:18:23.857Z,27.47
2018-11-14T15:20:51.780Z,31.93
2018-11-14T15:23:19.702Z,28.63
2018-11-14T15:25:47.611Z,29.30
2018-11-14T15:28:15.639Z,29.47
2018-11-14T15:30:44.392Z,27.67
2018-11-14T15:33:12.355Z,27.33
2018-11-14T15:35:40.946Z,26.27
2018-11-14T15:38:09.485Z,26.20
2018-11-14T15:40:38.542Z,26.90
2018-11-14T15:43:08.342Z,25.97
2018-11-14T15:45:37.260Z,23.20
2018-11-14T15:48:06.105Z,27.00
2018-11-14T15:50:35.762Z,29.53
2018-11-14T15:53:04.030Z,27.23
2018-11-14T15:55:32.870Z,24.60
2018-11-14T15:58:00.913Z,24.83
2018-11-14T16:00:32.410Z,27.67
2018-11-14T16:03:02.201Z,26.93
2018-11-14T16:05:32.211Z,23.50
2018-11-14T16:08:04.395Z,28.33
2018-11-14T16:10:33.262Z,30.60
2018-11-14T16:13:05.185Z,30.93
2018-11-14T16:15:35.520Z,32.30
2018-11-14T16:18:04.201Z,30.77
2018-11-14T16:20:34.140Z,28.07
2018-11-14T16:23:08.011Z,28.67
2018-11-14T16:25:37.391Z,32.00
2018-11-14T16:28:05.679Z,28.63
2018-11-14T16:30:36.603Z,26.90
2018-11-14T16:33:07.070Z,25.20
2018-11-14T16:35:38.551Z,26.20
2018-11-14T16:38:08.515Z,25.97
2018-11-14T16:40:37.423Z,27.93
2018-11-14T16:43:11.701Z,29.77
2018-11-14T16:45:41.096Z,32.07
2018-11-14T16:48:12.214Z,31.37
2018-11-14T16:50:40.179Z,29.90
2018-11-14T16:53:08.962Z,29.37
2018-11-14T16:55:39.691Z,31.73
2018-11-14T16:58:07.618Z,32.77
2018-11-14T17:00:37.270Z,30.43
2018-11-14T17:03:05.334Z,36.10
2018-11-14T17:05:35.334Z,34.77
2018-11-14T17:08:06.591Z,33.87
2018-11-14T17:10:39.804Z,35.67
2018-11-14T17:13:08.510Z,33.03
2018-11-14T17:15:38.073Z,39.43
2018-11-14T17:21:03.216Z,36.00
2018-11-14T17:23:31.279Z,34.90
2018-11-14T17:26:02.374Z,38.57
2018-11-14T17:28:30.517Z,35.67
2018-11-14T17:30:59.287Z,41.40
2018-11-14T17:33:28.392Z,38.67
2018-11-14T17:35:57.131Z,37.57
2018-11-14T17:38:25.576Z,38.37
2018-11-14T17:40:55.344Z,33.97
2018-11-14T17:43:24.974Z,37.23
2018-11-14T17:45:54.459Z,42.40
2018-11-14T17:48:24.682Z,31.43
2018-11-14T17:50:53.958Z,31.73
2018-11-14T17:53:23.098Z,38.03
2018-11-14T17:55:52.039Z,38.87
2018-11-14T17:58:21.608Z,33.47
2018-11-14T18:00:52.296Z,39.23
2018-11-14T18:03:22.305Z,34.50
2018-11-14T18:05:53.407Z,32.73
2018-11-14T18:08:24.796Z,34.20
2018-11-14T18:10:57.744Z,36.90
2018-11-14T18:13:28.894Z,35.73
2018-11-14T18:16:00.161Z,39.17
2018-11-14T18:18:33.076Z,37.57
2018-11-14T18:21:01.454Z,36.80
2018-11-14T18:23:31.658Z,34.33
2018-11-14T18:26:08.694Z,32.47
2018-11-14T18:28:38.518Z,35.43
2018-11-14T18:31:08.946Z,35.53
2018-11-14T18:33:40.304Z,49.90
2018-11-14T18:36:09.242Z,57.80
2018-11-14T18:38:38.623Z,48.00
2018-11-14T18:41:07.213Z,61.40
2018-11-14T18:43:36.751Z,64.83
2018-11-14T18:46:08.375Z,56.47
2018-11-14T18:48:37.843Z,50.37
2018-11-14T18:51:06.952Z,52.43
2018-11-14T18:53:38.306Z,48.23
2018-11-14T18:56:08.090Z,44.10
2018-11-14T18:58:40.725Z,43.30
2018-11-14T19:01:10.004Z,40.73
2018-11-14T19:03:44.335Z,45.93
2018-11-14T19:06:18.749Z,50.07
2018-11-14T19:08:49.513Z,54.13
2018-11-14T19:11:18.780Z,56.03
2018-11-14T19:13:50.027Z,48.97
2018-11-14T19:16:19.119Z,52.07
2018-11-14T19:18:48.936Z,50.83
2018-11-14T19:21:26.487Z,55.83
2018-11-14T19:23:57.607Z,61.60
2018-11-14T19:26:25.979Z,51.97
2018-11-14T19:28:55.238Z,46.60
2018-11-14T19:31:24.242Z,52.67
2018-11-14T19:33:54.337Z,46.57
2018-11-14T19:36:25.020Z,54.40
2018-11-14T19:38:53.650Z,50.73
2018-11-14T19:41:29.558Z,46.60
2018-11-14T19:44:01.207Z,47.43
2018-11-14T19:46:30.849Z,54.60
2018-11-14T19:49:01.235Z,55.30
2018-11-14T19:51:31.394Z,58.37
2018-11-14T19:54:00.008Z,49.97
2018-11-14T19:56:30.359Z,52.10
2018-11-14T19:59:00.046Z,47.97
2018-11-14T20:01:29.540Z,50.97
2018-11-14T20:03:58.163Z,43.63
2018-11-14T20:06:28.964Z,51.27
2018-11-14T20:08:59.049Z,50.87
2018-11-14T20:11:29.225Z,50.33
2018-11-14T20:13:58.216Z,46.63
2018-11-14T20:16:29.216Z,50.30
2018-11-14T20:18:58.486Z,42.23
2018-11-14T20:21:27.373Z,40.43
2018-11-14T20:23:56.235Z,45.23
2018-11-14T20:26:27.016Z,41.13
2018-11-14T20:28:56.598Z,41.13
2018-11-14T20:31:26.862Z,37.80
2018-11-14T20:33:59.185Z,39.97
2018-11-14T20:36:28.608Z,39.57
2018-11-14T20:38:58.273Z,35.20
2018-11-14T20:41:27.304Z,39.70
2018-11-14T20:43:56.155Z,35.80
2018-11-14T20:46:24.989Z,36.53
2018-11-14T20:48:57.662Z,38.37
2018-11-14T20:51:25.918Z,37.97
2018-11-14T20:53:56.540Z,40.00
2018-11-14T20:56:32.298Z,36.93
2018-11-14T20:59:02.166Z,36.13
2018-11-14T21:01:31.861Z,32.57
2018-11-14T21:04:00.655Z,33.33
2018-11-14T21:06:32.079Z,35.33
2018-11-14T21:09:00.062Z,38.60
2018-11-14T21:11:28.627Z,35.57
2018-11-14T21:13:56.730Z,39.17
2018-11-14T21:16:25.284Z,38.47
2018-11-14T21:18:57.562Z,42.43
2018-11-14T21:21:25.534Z,39.40
2018-11-14T21:23:54.016Z,42.00
2018-11-14T21:26:21.951Z,43.83
2018-11-14T21:28:49.886Z,38.23
2018-11-14T21:31:19.491Z,35.30
2018-11-14T21:33:50.643Z,41.07
2018-11-14T21:36:21.395Z,37.40
2018-11-14T21:38:49.894Z,41.17
2018-11-14T21:41:18.697Z,36.70
2018-11-14T21:43:48.058Z,37.27
2018-11-14T21:46:17.202Z,47.87
2018-11-14T21:48:45.649Z,43.33
2018-11-14T21:51:14.194Z,40.13
2018-11-14T21:53:43.102Z,43.40
2018-11-14T21:56:11.779Z,42.73
2018-11-14T21:58:40.482Z,42.10
2018-11-14T22:01:08.422Z,37.93
2018-11-14T22:03:36.358Z,46.93
2018-11-14T22:06:04.373Z,50.73
2018-11-14T22:08:35.237Z,54.87
2018-11-14T22:11:04.356Z,48.23
2018-11-14T22:13:32.288Z,50.67
2018-11-14T22:16:00.207Z,45.13
2018-11-14T22:18:28.244Z,43.50
2018-11-14T22:20:57.174Z,46.57
2018-11-14T22:23:25.134Z,47.80
2018-11-14T22:25:54.046Z,45.27
2018-11-14T22:28:21.991Z,44.20
2018-11-14T22:30:49.974Z,41.37
2018-11-14T22:33:17.967Z,37.57
2018-11-14T22:35:45.891Z,38.27
2018-11-14T22:38:13.849Z,40.67
2018-11-14T22:40:41.818Z,40.90
2018-11-14T22:43:09.722Z,39.93
2018-11-14T22:45:37.765Z,36.70
2018-11-14T22:48:05.734Z,38.90
2018-11-14T22:50:33.799Z,47.17
2018-11-14T22:53:01.732Z,47.97
2018-11-14T22:55:29.784Z,44.63
2018-11-14T22:57:58.029Z,39.87
2018-11-14T23:00:28.687Z,39.37
2018-11-14T23:02:57.844Z,40.80
2018-11-14T23:05:25.841Z,41.30
2018-11-14T23:07:54.691Z,37.87
2018-11-14T23:10:23.573Z,41.50
2018-11-14T23:12:51.836Z,41.77
2018-11-14T23:15:20.545Z,53.73
2018-11-14T23:17:48.744Z,57.17
2018-11-14T23:20:17.293Z,46.37
2018-11-14T23:22:46.068Z,47.50
2018-11-14T23:25:14.505Z,52.47
2018-11-14T23:27:43.651Z,45.37
2018-11-14T23:30:12.611Z,40.70
2018-11-14T23:32:42.071Z,42.63
2018-11-14T23:35:15.613Z,43.73
2018-11-14T23:37:44.961Z,43.70
2018-11-14T23:40:12.856Z,60.10
2018-11-14T23:42:40.895Z,50.03
2018-11-14T23:45:11.627Z,49.30
2018-11-14T23:47:39.867Z,43.73
2018-11-14T23:50:11.030Z,47.10
2018-11-14T23:52:39.086Z,44.20
2018-11-14T23:55:07.577Z,49.33
2018-11-14T23:57:35.504Z,47.47
